YM Venus — 9HCB8 — position and weather

sailwx.info

Track history (hours):
 
Tides and Currents Weather Stations Pressure Air Temp Water Temp Dewpoint Dewpoint Depression Visibility Wind Speed Wind Dir Waves Ship Positions

YM Venus

Last reported at 2016-Jul-15 22:14 UTC. Time now 2016-Jul-28 12:24 UTC.
Position N 31°12' E 029°43'.
Warning: this ship's position is 12 days out of date.

Length 105 m; draft 6.9 m.

Type: Tanker. MMSI: 215826000.

Date/timePositionNaut miles runAvg speedWind from/ knotsBaromVisibWave heightAir tempDewpointWater temp
2016-Jul-15 22:14N 31°12' E 029°43'0 0.0
2016-Jul-15 21:29N 31°12' E 029°43'2 2.4
2016-Jul-15 20:33N 31°13' E 029°40'1010.3
2016-Jul-15 19:33N 31°20' E 029°32'1311.7
2016-Jul-15 18:26N 31°27' E 029°19'1112.0
2016-Jul-15 17:31N 31°32' E 029°07'1111.9
2016-Jul-15 16:33N 31°37' E 028°55'1211.9
2016-Jul-15 15:32N 31°42' E 028°42'  
2016-Jul-13 01:22N 36°58' E 015°50'910.5
2016-Jul-13 00:33N 37°02' E 015°41'1210.6
2016-Jul-12 23:26N 37°07' E 015°27'8 0.2
2016-Jul-11 03:33N 37°11' E 015°19'10 9.9
2016-Jul-11 02:34N 37°03' E 015°25'10 9.5
2016-Jul-11 01:33N 36°53' E 015°25'8 8.4
2016-Jul-11 00:33N 36°45' E 015°25'8 7.9
2016-Jul-10 23:33N 36°38' E 015°20'9 8.9
2016-Jul-10 22:33N 36°32' E 015°12'1212.2
2016-Jul-10 21:33N 36°26' E 014°58'1212.2
2016-Jul-10 20:33N 36°26' E 014°43'1312.5
2016-Jul-10 19:33N 36°29' E 014°28'1312.8
2016-Jul-10 18:33N 36°34' E 014°13'1313.3
2016-Jul-10 17:33N 36°39' E 013°58'1313.2
2016-Jul-10 16:33N 36°47' E 013°45'1313.0
2016-Jul-10 15:33N 36°54' E 013°31'1312.7
2016-Jul-10 14:33N 37°00' E 013°17'1212.3
2016-Jul-10 13:33N 37°07' E 013°04'1212.2
2016-Jul-10 12:33N 37°13' E 012°51'2512.0
2016-Jul-10 10:29N 37°27' E 012°25'1112.3
2016-Jul-10 09:33N 37°33' E 012°13'1212.4
2016-Jul-10 08:33N 37°40' E 011°60'1512.8
2016-Jul-10 07:22N 37°48' E 011°44'1113.2
2016-Jul-10 06:33N 37°53' E 011°32'2512.8
2016-Jul-10 04:33N 38°00' E 011°01'1212.2
2016-Jul-10 03:32N 38°04' E 010°46'1212.6
2016-Jul-10 02:33N 38°08' E 010°31'1312.5
2016-Jul-10 01:32N 38°12' E 010°15'1212.3
2016-Jul-10 00:32N 38°16' E 010°00'1212.4
2016-Jul-09 23:33N 38°20' E 009°46'1212.1
2016-Jul-09 22:33N 38°23' E 009°31'1212.2
2016-Jul-09 21:33N 38°27' E 009°16'1512.0
2016-Jul-09 20:20N 38°31' E 008°58'912.1
2016-Jul-09 19:33N 38°34' E 008°47'8311.5
2016-Jul-09 12:18N 39°33' E 007°31'19811.5
2016-Jul-08 19:09N 42°29' E 005°31'712.2
2016-Jul-08 18:33N 42°35' E 005°27'5012.4
2016-Jul-08 14:29N 43°21' E 004°59'4 0.2
2016-Jul-07 20:17N 43°24' E 005°03'3 4.2
2016-Jul-07 19:30N 43°24' E 004°58'0 0.0
2016-Jul-07 18:33N 43°24' E 004°58'0 0.0
2016-Jul-07 17:30N 43°24' E 004°58'0 0.0
2016-Jul-07 16:30N 43°24' E 004°58'0 0.1
2016-Jul-07 15:33N 43°24' E 004°58'0 0.0
2016-Jul-07 14:33N 43°24' E 004°58'8510.6
2016-Jul-07 06:33N 42°07' E 005°48'2211.0
2016-Jul-07 04:33N 41°48' E 006°01'1111.2
2016-Jul-07 03:33N 41°37' E 006°08'1111.3
2016-Jul-07 02:33N 41°27' E 006°14'2210.9
2016-Jul-07 00:30N 41°08' E 006°28'1011.0
2016-Jul-06 23:34N 40°59' E 006°36'1211.6
2016-Jul-06 22:33N 40°48' E 006°42'15711.2
2016-Jul-06 08:32N 38°39' E 008°40'3511.8
2016-Jul-06 05:33N 38°25' E 009°21'1111.1
2016-Jul-06 04:33N 38°22' E 009°35'1111.1
2016-Jul-06 03:32N 38°19' E 009°49'1111.1
2016-Jul-06 02:33N 38°15' E 010°02'1411.1
2016-Jul-06 01:15N 38°11' E 010°19'1211.2
2016-Jul-06 00:12N 38°08' E 010°34'  
Track history (hours):
 
Tides and Currents Weather Stations Pressure Air Temp Water Temp Dewpoint Dewpoint Depression Visibility Wind Speed Wind Dir Waves Ship Positions

YM Venus

Last reported at 2016-Jul-15 22:14 UTC. Time now 2016-Jul-28 12:24 UTC.
Position N 31°12' E 029°43'.
Warning: this ship's position is 12 days out of date.

Length 105 m; draft 6.9 m.

Type: Tanker. MMSI: 215826000.

Date/timePositionNaut miles runAvg speedWind from/ knotsBaromVisibWave heightAir tempDewpointWater temp
2016-Jul-15 22:14N 31°12' E 029°43'0 0.0
2016-Jul-15 21:29N 31°12' E 029°43'2 2.4
2016-Jul-15 20:33N 31°13' E 029°40'1010.3
2016-Jul-15 19:33N 31°20' E 029°32'1311.7
2016-Jul-15 18:26N 31°27' E 029°19'1112.0
2016-Jul-15 17:31N 31°32' E 029°07'1111.9
2016-Jul-15 16:33N 31°37' E 028°55'1211.9
2016-Jul-15 15:32N 31°42' E 028°42'  
2016-Jul-13 01:22N 36°58' E 015°50'910.5
2016-Jul-13 00:33N 37°02' E 015°41'1210.6
2016-Jul-12 23:26N 37°07' E 015°27'8 0.2
2016-Jul-11 03:33N 37°11' E 015°19'10 9.9
2016-Jul-11 02:34N 37°03' E 015°25'10 9.5
2016-Jul-11 01:33N 36°53' E 015°25'8 8.4
2016-Jul-11 00:33N 36°45' E 015°25'8 7.9
2016-Jul-10 23:33N 36°38' E 015°20'9 8.9
2016-Jul-10 22:33N 36°32' E 015°12'1212.2
2016-Jul-10 21:33N 36°26' E 014°58'1212.2
2016-Jul-10 20:33N 36°26' E 014°43'1312.5
2016-Jul-10 19:33N 36°29' E 014°28'1312.8
2016-Jul-10 18:33N 36°34' E 014°13'1313.3
2016-Jul-10 17:33N 36°39' E 013°58'1313.2
2016-Jul-10 16:33N 36°47' E 013°45'1313.0
2016-Jul-10 15:33N 36°54' E 013°31'1312.7
2016-Jul-10 14:33N 37°00' E 013°17'1212.3
2016-Jul-10 13:33N 37°07' E 013°04'1212.2
2016-Jul-10 12:33N 37°13' E 012°51'2512.0
2016-Jul-10 10:29N 37°27' E 012°25'1112.3
2016-Jul-10 09:33N 37°33' E 012°13'1212.4
2016-Jul-10 08:33N 37°40' E 011°60'1512.8
2016-Jul-10 07:22N 37°48' E 011°44'1113.2
2016-Jul-10 06:33N 37°53' E 011°32'2512.8
2016-Jul-10 04:33N 38°00' E 011°01'1212.2
2016-Jul-10 03:32N 38°04' E 010°46'1212.6
2016-Jul-10 02:33N 38°08' E 010°31'1312.5
2016-Jul-10 01:32N 38°12' E 010°15'1212.3
2016-Jul-10 00:32N 38°16' E 010°00'1212.4
2016-Jul-09 23:33N 38°20' E 009°46'1212.1
2016-Jul-09 22:33N 38°23' E 009°31'1212.2
2016-Jul-09 21:33N 38°27' E 009°16'1512.0
2016-Jul-09 20:20N 38°31' E 008°58'912.1
2016-Jul-09 19:33N 38°34' E 008°47'8311.5
2016-Jul-09 12:18N 39°33' E 007°31'19811.5
2016-Jul-08 19:09N 42°29' E 005°31'712.2
2016-Jul-08 18:33N 42°35' E 005°27'5012.4
2016-Jul-08 14:29N 43°21' E 004°59'4 0.2
2016-Jul-07 20:17N 43°24' E 005°03'3 4.2
2016-Jul-07 19:30N 43°24' E 004°58'0 0.0
2016-Jul-07 18:33N 43°24' E 004°58'0 0.0
2016-Jul-07 17:30N 43°24' E 004°58'0 0.0
2016-Jul-07 16:30N 43°24' E 004°58'0 0.1
2016-Jul-07 15:33N 43°24' E 004°58'0 0.0
2016-Jul-07 14:33N 43°24' E 004°58'8510.6
2016-Jul-07 06:33N 42°07' E 005°48'2211.0
2016-Jul-07 04:33N 41°48' E 006°01'1111.2
2016-Jul-07 03:33N 41°37' E 006°08'1111.3
2016-Jul-07 02:33N 41°27' E 006°14'2210.9
2016-Jul-07 00:30N 41°08' E 006°28'1011.0
2016-Jul-06 23:34N 40°59' E 006°36'1211.6
2016-Jul-06 22:33N 40°48' E 006°42'15711.2
2016-Jul-06 08:32N 38°39' E 008°40'3511.8
2016-Jul-06 05:33N 38°25' E 009°21'1111.1
2016-Jul-06 04:33N 38°22' E 009°35'1111.1
2016-Jul-06 03:32N 38°19' E 009°49'1111.1
2016-Jul-06 02:33N 38°15' E 010°02'1411.1
2016-Jul-06 01:15N 38°11' E 010°19'1211.2
2016-Jul-06 00:12N 38°08' E 010°34'  

Dump ship's entire track history